createdAt,value
2022-08-12T00:00:43.954Z,99.90
2022-08-12T00:03:29.834Z,99.90
2022-08-12T00:06:16.114Z,99.90
2022-08-12T00:09:02.203Z,99.90
2022-08-12T00:11:50.097Z,99.90
2022-08-12T00:14:36.963Z,99.90
2022-08-12T00:17:23.498Z,99.90
2022-08-12T00:20:09.729Z,99.90
2022-08-12T00:22:59.877Z,99.90
2022-08-12T00:26:21.159Z,99.90
2022-08-12T00:29:04.553Z,99.90
2022-08-12T00:31:50.508Z,99.90
2022-08-12T00:34:37.462Z,99.90
2022-08-12T00:37:24.840Z,99.90
2022-08-12T00:40:12.027Z,99.90
2022-08-12T00:42:41.809Z,99.90
2022-08-12T00:45:12.457Z,99.90
2022-08-12T00:47:41.251Z,99.90
2022-08-12T00:50:19.110Z,99.90
2022-08-12T00:52:49.607Z,99.90
2022-08-12T00:55:19.911Z,99.90
2022-08-12T00:57:50.419Z,99.90
2022-08-12T01:00:22.619Z,99.90
2022-08-12T01:02:53.648Z,99.90
2022-08-12T01:05:41.582Z,99.90
2022-08-12T01:08:43.007Z,99.90
2022-08-12T01:11:31.775Z,99.90
2022-08-12T01:14:02.848Z,99.90
2022-08-12T01:16:33.433Z,99.90
2022-08-12T01:19:03.773Z,99.90
2022-08-12T01:22:04.398Z,99.90
2022-08-12T01:24:54.321Z,99.90
2022-08-12T01:27:23.934Z,99.90
2022-08-12T01:29:55.532Z,99.90
2022-08-12T01:32:27.546Z,99.90
2022-08-12T01:35:03.256Z,99.90
2022-08-12T01:37:36.707Z,99.90
2022-08-12T01:40:33.301Z,99.90
2022-08-12T01:43:07.137Z,99.90
2022-08-12T01:45:42.887Z,99.90
2022-08-12T01:48:25.921Z,99.90
2022-08-12T01:51:06.597Z,99.90
2022-08-12T01:53:58.704Z,99.90
2022-08-12T01:56:43.425Z,99.90
2022-08-12T01:59:33.461Z,99.90
2022-08-12T02:02:06.029Z,99.90
2022-08-12T02:05:03.514Z,99.90
2022-08-12T02:08:03.160Z,99.90
2022-08-12T02:11:03.472Z,99.90
2022-08-12T02:13:50.416Z,99.90
2022-08-12T02:16:30.898Z,99.90
2022-08-12T02:19:22.215Z,99.90
2022-08-12T02:22:05.071Z,99.90
2022-08-12T02:24:35.510Z,99.90
2022-08-12T02:27:06.127Z,99.90
2022-08-12T02:29:36.446Z,99.90
2022-08-12T02:32:05.932Z,99.90
2022-08-12T02:34:35.855Z,99.90
2022-08-12T02:37:05.656Z,99.90
2022-08-12T02:39:37.254Z,99.90
2022-08-12T02:42:07.585Z,99.90
2022-08-12T02:44:41.518Z,99.90
2022-08-12T02:47:57.122Z,99.90
2022-08-12T02:50:04.799Z,99.90
2022-08-12T02:52:35.476Z,99.90
2022-08-12T02:55:13.423Z,99.90
2022-08-12T02:58:00.518Z,99.90
2022-08-12T03:00:37.811Z,99.90
2022-08-12T03:03:08.194Z,99.90
2022-08-12T03:05:44.420Z,99.90
2022-08-12T03:08:22.370Z,99.90
2022-08-12T03:11:12.170Z,99.90
2022-08-12T03:13:49.008Z,99.90
2022-08-12T03:16:20.665Z,99.90
2022-08-12T03:18:50.377Z,99.90
2022-08-12T03:21:55.442Z,99.90
2022-08-12T03:24:10.041Z,99.90
2022-08-12T03:26:39.214Z,99.90
2022-08-12T03:29:08.503Z,99.90
2022-08-12T03:31:38.390Z,99.90
2022-08-12T03:34:08.891Z,99.90
2022-08-12T03:36:40.776Z,99.90
2022-08-12T03:39:40.847Z,99.90
2022-08-12T03:42:22.597Z,99.90
2022-08-12T03:45:16.392Z,99.90
2022-08-12T03:48:18.604Z,99.90
2022-08-12T03:51:05.820Z,99.90
2022-08-12T03:53:53.213Z,99.90
2022-08-12T03:56:39.491Z,99.90
2022-08-12T03:59:26.805Z,99.90
2022-08-12T04:01:58.620Z,99.90
2022-08-12T04:04:34.892Z,99.90
2022-08-12T04:07:06.630Z,99.90
2022-08-12T04:09:36.316Z,99.90
2022-08-12T04:12:23.167Z,99.90
2022-08-12T04:14:57.032Z,99.90
2022-08-12T04:17:28.182Z,99.90
2022-08-12T04:20:00.076Z,99.90
2022-08-12T04:22:31.106Z,99.90
2022-08-12T04:25:01.959Z,99.90
2022-08-12T04:27:32.680Z,99.90
2022-08-12T04:30:16.896Z,99.90
2022-08-12T04:32:52.156Z,99.90
2022-08-12T04:35:24.091Z,99.90
2022-08-12T04:37:59.046Z,99.90
2022-08-12T04:40:31.577Z,99.90
2022-08-12T04:43:02.097Z,99.90
2022-08-12T04:45:31.654Z,99.90
2022-08-12T04:48:01.914Z,99.90
2022-08-12T04:50:37.048Z,99.90
2022-08-12T04:53:08.982Z,99.90
2022-08-12T04:55:39.415Z,99.90
2022-08-12T04:58:08.136Z,99.90
2022-08-12T05:00:37.917Z,99.90
2022-08-12T05:03:07.186Z,99.90
2022-08-12T05:05:38.613Z,99.90
2022-08-12T05:08:12.489Z,99.90
2022-08-12T05:10:41.351Z,99.90
2022-08-12T05:13:12.278Z,99.90
2022-08-12T05:16:02.564Z,99.90
2022-08-12T05:18:30.556Z,99.90
2022-08-12T05:21:00.601Z,99.90
2022-08-12T05:23:32.019Z,99.90
2022-08-12T05:26:01.556Z,99.90
2022-08-12T05:28:30.867Z,99.90
2022-08-12T05:31:01.777Z,99.90
2022-08-12T05:33:37.539Z,99.90
2022-08-12T05:36:09.429Z,99.90
2022-08-12T05:38:55.933Z,99.90
2022-08-12T05:41:25.802Z,99.90
2022-08-12T05:43:56.162Z,99.90
2022-08-12T05:46:26.687Z,99.90
2022-08-12T05:48:56.797Z,99.90
2022-08-12T05:51:39.583Z,99.90
2022-08-12T05:54:10.605Z,99.90
2022-08-12T05:56:40.309Z,99.90
2022-08-12T05:59:11.252Z,99.90
2022-08-12T06:02:11.859Z,99.90
2022-08-12T06:04:32.356Z,99.90
2022-08-12T06:08:00.590Z,99.90
2022-08-12T06:09:51.583Z,99.90
2022-08-12T06:12:23.735Z,99.90
2022-08-12T06:14:55.188Z,99.90
2022-08-12T06:17:24.313Z,99.90
2022-08-12T06:20:28.304Z,99.90
2022-08-12T06:22:45.216Z,99.90
2022-08-12T06:25:21.635Z,99.90
2022-08-12T06:28:07.950Z,99.90
2022-08-12T06:30:39.417Z,99.90
2022-08-12T06:33:22.293Z,99.90
2022-08-12T06:35:57.301Z,99.90
2022-08-12T06:38:30.358Z,99.90
2022-08-12T06:41:18.541Z,99.90
2022-08-12T06:44:04.694Z,99.90
2022-08-12T06:46:38.938Z,99.90
2022-08-12T06:49:10.256Z,99.90
2022-08-12T06:51:38.935Z,99.90
2022-08-12T06:54:10.529Z,99.90
2022-08-12T06:59:27.770Z,99.90
2022-08-12T07:01:56.316Z,99.90
2022-08-12T07:04:40.292Z,99.90
2022-08-12T07:07:10.514Z,98.70
2022-08-12T07:10:03.822Z,97.40
2022-08-12T07:12:32.265Z,96.50
2022-08-12T07:15:02.412Z,95.80
2022-08-12T07:17:36.204Z,95.20
2022-08-12T07:20:06.895Z,94.30
2022-08-12T07:22:35.705Z,94.30
2022-08-12T07:25:24.141Z,93.30
2022-08-12T07:27:55.258Z,93.30
2022-08-12T07:30:24.246Z,93.50
2022-08-12T07:32:52.921Z,93.40
2022-08-12T07:35:21.715Z,92.40
2022-08-12T07:37:50.645Z,92.40
2022-08-12T07:40:21.315Z,91.30
2022-08-12T07:42:50.074Z,90.70
2022-08-12T07:45:20.307Z,89.20
2022-08-12T07:47:51.310Z,88.90
2022-08-12T07:50:23.726Z,89.10
2022-08-12T07:52:53.035Z,88.30
2022-08-12T07:55:23.176Z,86.20
2022-08-12T07:57:54.246Z,86.60
2022-08-12T08:00:23.260Z,86.00
2022-08-12T08:02:52.258Z,86.00
2022-08-12T08:05:21.446Z,84.70
2022-08-12T08:07:50.373Z,85.10
2022-08-12T08:10:20.440Z,85.20
2022-08-12T08:12:56.048Z,83.40
2022-08-12T08:15:51.322Z,88.00
2022-08-12T08:18:26.362Z,83.90
2022-08-12T08:20:57.613Z,81.20
2022-08-12T08:23:56.387Z,81.60
2022-08-12T08:26:27.531Z,81.80
2022-08-12T08:28:59.554Z,80.60
2022-08-12T08:31:28.367Z,84.00
2022-08-12T08:34:01.372Z,78.20
2022-08-12T08:36:39.988Z,80.90
2022-08-12T08:39:09.203Z,81.20
2022-08-12T08:42:19.028Z,78.00
2022-08-12T08:44:45.793Z,78.10
2022-08-12T08:47:14.641Z,81.30
2022-08-12T08:49:43.410Z,78.40
2022-08-12T08:52:12.638Z,77.90
2022-08-12T08:55:01.313Z,77.70
2022-08-12T08:57:43.044Z,82.20
2022-08-12T09:00:19.495Z,80.20
2022-08-12T09:02:59.502Z,79.40
2022-08-12T09:05:43.190Z,79.30
2022-08-12T09:08:26.631Z,79.60
2022-08-12T09:12:07.550Z,78.30
2022-08-12T09:14:11.976Z,76.70
2022-08-12T09:16:43.271Z,78.40
2022-08-12T09:22:04.755Z,74.50
2022-08-12T09:24:33.626Z,73.70
2022-08-12T09:27:02.737Z,75.80
2022-08-12T09:30:10.585Z,76.60
2022-08-12T09:32:29.288Z,74.70
2022-08-12T09:35:01.197Z,75.40
2022-08-12T09:37:55.119Z,76.70
2022-08-12T09:40:57.333Z,74.00
2022-08-12T09:43:27.687Z,75.50
2022-08-12T09:46:06.010Z,77.00
2022-08-12T09:48:56.529Z,71.40
2022-08-12T09:51:37.540Z,73.60
2022-08-12T09:54:31.083Z,72.50
2022-08-12T09:56:59.843Z,72.40
2022-08-12T10:00:16.083Z,72.70
2022-08-12T10:02:45.045Z,72.60
2022-08-12T10:05:17.884Z,72.30
2022-08-12T10:07:49.298Z,71.80
2022-08-12T10:10:23.952Z,70.70
2022-08-12T10:13:35.130Z,72.90
2022-08-12T10:16:05.920Z,73.10
2022-08-12T10:18:52.381Z,72.00
2022-08-12T10:21:35.607Z,71.70
2022-08-12T10:24:07.493Z,71.10
2022-08-12T10:26:55.213Z,73.70
2022-08-12T10:30:37.237Z,72.30
2022-08-12T10:32:44.038Z,72.60
2022-08-12T10:35:16.865Z,71.40
2022-08-12T10:38:37.801Z,73.00
2022-08-12T10:40:58.922Z,73.40
2022-08-12T10:43:55.795Z,72.40
2022-08-12T10:46:31.241Z,72.30
2022-08-12T10:49:07.084Z,73.90
2022-08-12T10:52:31.157Z,72.00
2022-08-12T10:54:46.257Z,69.10
2022-08-12T10:58:12.731Z,68.90
2022-08-12T11:00:31.166Z,69.70
2022-08-12T11:04:22.339Z,70.70
2022-08-12T11:07:08.741Z,72.30
2022-08-12T11:08:42.327Z,71.20
2022-08-12T11:12:08.432Z,71.00
2022-08-12T11:14:08.659Z,69.20
2022-08-12T11:17:34.886Z,69.00
2022-08-12T11:19:46.619Z,69.20
2022-08-12T11:22:18.237Z,70.30
2022-08-12T11:24:53.829Z,69.00
2022-08-12T11:27:25.473Z,70.00
2022-08-12T11:30:05.566Z,69.60
2022-08-12T11:32:39.054Z,71.80
2022-08-12T11:35:11.749Z,71.20
2022-08-12T11:37:58.017Z,72.30
2022-08-12T11:40:28.402Z,72.10
2022-08-12T11:43:18.778Z,71.30
2022-08-12T11:45:53.022Z,70.40
2022-08-12T11:48:26.675Z,71.00
2022-08-12T11:50:56.530Z,70.80
2022-08-12T11:53:58.625Z,68.90
2022-08-12T11:56:14.185Z,72.00
2022-08-12T12:02:03.034Z,70.30
2022-08-12T12:04:29.199Z,72.10
2022-08-12T12:07:07.267Z,69.40
2022-08-12T12:09:51.877Z,68.30
2022-08-12T12:12:25.191Z,71.00
2022-08-12T12:14:55.819Z,71.90
2022-08-12T12:17:25.044Z,70.80
2022-08-12T12:19:54.027Z,71.40
2022-08-12T12:22:27.103Z,70.40
2022-08-12T12:25:12.605Z,69.50
2022-08-12T12:28:05.195Z,68.20
2022-08-12T12:30:37.467Z,69.10
2022-08-12T12:33:07.000Z,69.60
2022-08-12T12:36:18.754Z,68.60
2022-08-12T12:38:25.702Z,66.60
2022-08-12T12:40:54.922Z,67.80
2022-08-12T12:43:42.658Z,65.40
2022-08-12T12:46:13.906Z,65.30
2022-08-12T12:48:44.595Z,66.20
2022-08-12T12:51:22.280Z,66.40
2022-08-12T12:54:10.453Z,66.40
2022-08-12T12:56:42.304Z,65.00
2022-08-12T12:59:54.891Z,66.50
2022-08-12T13:02:07.793Z,66.10
2022-08-12T13:04:38.230Z,66.00
2022-08-12T13:07:08.062Z,67.30
2022-08-12T13:09:37.046Z,67.40
2022-08-12T13:12:10.532Z,66.30
2022-08-12T13:14:39.974Z,68.30
2022-08-12T13:17:14.658Z,69.70
2022-08-12T13:19:46.579Z,68.40
2022-08-12T13:22:27.254Z,68.90
2022-08-12T13:24:59.806Z,68.30
2022-08-12T13:27:34.724Z,67.50
2022-08-12T13:30:11.997Z,68.10
2022-08-12T13:32:56.875Z,68.00
2022-08-12T13:35:33.445Z,67.90
2022-08-12T13:38:03.572Z,67.40
2022-08-12T13:40:34.846Z,67.20
2022-08-12T13:43:06.874Z,66.20
2022-08-12T13:45:36.986Z,67.00
2022-08-12T13:48:08.947Z,67.20
2022-08-12T13:50:39.053Z,67.00
2022-08-12T13:53:23.926Z,68.90
2022-08-12T13:56:11.830Z,68.70
2022-08-12T13:58:52.704Z,68.20
2022-08-12T14:01:22.081Z,69.90
2022-08-12T14:03:53.564Z,70.30
2022-08-12T14:06:25.999Z,70.20
2022-08-12T14:08:59.798Z,71.70
2022-08-12T14:11:47.924Z,69.20
2022-08-12T14:14:27.448Z,69.20
2022-08-12T14:17:05.474Z,71.20
2022-08-12T14:19:46.121Z,69.60
2022-08-12T14:22:21.405Z,69.00
2022-08-12T14:24:55.452Z,66.70
2022-08-12T14:28:02.510Z,68.30
2022-08-12T14:30:24.221Z,68.00
2022-08-12T14:33:02.854Z,66.30
2022-08-12T14:35:41.396Z,65.60
2022-08-12T14:38:16.255Z,64.90
2022-08-12T14:40:45.649Z,64.90
2022-08-12T14:43:15.457Z,64.10
2022-08-12T14:45:49.346Z,64.40
2022-08-12T14:48:19.648Z,65.40
2022-08-12T14:52:16.091Z,65.00
2022-08-12T14:55:24.814Z,64.50
2022-08-12T14:59:56.991Z,65.00
2022-08-12T15:02:28.690Z,62.70
2022-08-12T15:05:00.721Z,64.60
2022-08-12T15:07:34.017Z,65.10
2022-08-12T15:10:13.439Z,66.20
2022-08-12T15:12:42.293Z,64.20
2022-08-12T15:15:11.845Z,65.80
2022-08-12T15:17:40.853Z,67.10
2022-08-12T15:20:33.188Z,65.60
2022-08-12T15:23:01.540Z,67.80
2022-08-12T15:25:40.346Z,66.80
2022-08-12T15:28:22.278Z,66.50
2022-08-12T15:30:53.450Z,67.10
2022-08-12T15:33:24.090Z,67.80
2022-08-12T15:35:54.007Z,66.80
2022-08-12T15:38:28.162Z,68.00
2022-08-12T15:41:00.174Z,67.10
2022-08-12T15:43:52.156Z,68.00
2022-08-12T15:46:25.550Z,68.10
2022-08-12T15:48:55.768Z,68.90
2022-08-12T15:51:58.920Z,69.00
2022-08-12T15:54:33.168Z,69.00
2022-08-12T15:57:03.626Z,70.00
2022-08-12T15:59:51.377Z,69.50
2022-08-12T16:02:21.324Z,68.20
2022-08-12T16:04:51.472Z,68.50
2022-08-12T16:07:26.237Z,68.50
2022-08-12T16:10:06.597Z,69.50
2022-08-12T16:12:54.431Z,69.60
2022-08-12T16:15:26.463Z,69.40
2022-08-12T16:18:17.828Z,70.50
2022-08-12T16:20:47.406Z,71.30
2022-08-12T16:23:36.158Z,71.50
2022-08-12T16:26:14.488Z,72.00
2022-08-12T16:28:44.033Z,72.50
2022-08-12T16:31:23.041Z,73.20
2022-08-12T16:33:59.514Z,72.50
2022-08-12T16:36:30.818Z,73.00
2022-08-12T16:39:01.665Z,73.70
2022-08-12T16:41:38.116Z,74.00
2022-08-12T16:44:09.502Z,74.50
2022-08-12T16:46:39.257Z,74.20
2022-08-12T16:49:13.329Z,74.60
2022-08-12T16:51:46.621Z,73.80
2022-08-12T16:54:18.466Z,73.60
2022-08-12T16:56:54.751Z,73.60
2022-08-12T16:59:30.893Z,74.20
2022-08-12T17:02:31.902Z,74.10
2022-08-12T17:05:04.753Z,74.50
2022-08-12T17:07:38.337Z,75.80
2022-08-12T17:10:18.467Z,75.80
2022-08-12T17:13:10.037Z,76.10
2022-08-12T17:15:57.897Z,76.40
2022-08-12T17:18:43.626Z,77.00
2022-08-12T17:21:19.695Z,77.30
2022-08-12T17:23:53.389Z,78.00
2022-08-12T17:26:27.992Z,77.90
2022-08-12T17:29:00.830Z,79.10
2022-08-12T17:31:59.907Z,78.80
2022-08-12T17:34:33.353Z,79.40
2022-08-12T17:37:05.572Z,80.00
2022-08-12T17:40:15.280Z,80.40
2022-08-12T17:42:32.656Z,82.20
2022-08-12T17:45:18.471Z,81.50
2022-08-12T17:47:59.983Z,82.30
2022-08-12T17:50:33.289Z,82.90
2022-08-12T17:53:03.453Z,83.60
2022-08-12T17:55:44.226Z,84.50
2022-08-12T17:58:18.038Z,85.60
2022-08-12T18:00:50.444Z,85.50
2022-08-12T18:03:57.480Z,85.90
2022-08-12T18:06:14.444Z,86.50
2022-08-12T18:08:55.101Z,87.00
2022-08-12T18:12:05.101Z,87.50
2022-08-12T18:14:32.140Z,88.10
2022-08-12T18:17:02.695Z,88.80
2022-08-12T18:19:34.085Z,89.40
2022-08-12T18:22:22.215Z,90.20
2022-08-12T18:25:03.828Z,90.50
2022-08-12T18:27:46.871Z,90.80
2022-08-12T18:30:29.210Z,91.10
2022-08-12T18:33:03.528Z,91.30
2022-08-12T18:35:47.302Z,91.50
2022-08-12T18:38:24.654Z,91.50
2022-08-12T18:41:21.662Z,91.80
2022-08-12T18:44:00.056Z,92.00
2022-08-12T18:46:37.500Z,92.30
2022-08-12T18:49:18.335Z,92.70
2022-08-12T18:51:55.558Z,92.90
2022-08-12T18:54:33.408Z,93.40
2022-08-12T18:57:07.141Z,94.20
2022-08-12T19:00:01.334Z,95.40
2022-08-12T19:02:36.157Z,96.20
2022-08-12T19:05:10.046Z,97.20
2022-08-12T19:07:49.801Z,98.40
2022-08-12T19:10:30.583Z,99.40
2022-08-12T19:13:23.836Z,99.90
2022-08-12T19:15:57.857Z,99.90
2022-08-12T19:18:31.066Z,99.90
2022-08-12T19:21:11.580Z,99.90
2022-08-12T19:24:05.503Z,99.90
2022-08-12T19:26:34.434Z,99.90
2022-08-12T19:29:05.062Z,99.90
2022-08-12T19:31:44.755Z,99.90
2022-08-12T19:37:27.408Z,99.90
2022-08-12T19:40:09.257Z,99.90
2022-08-12T19:42:53.423Z,99.90
2022-08-12T19:45:22.965Z,99.90
2022-08-12T19:47:51.530Z,99.90
2022-08-12T19:50:20.662Z,99.90
2022-08-12T19:52:51.116Z,99.90
2022-08-12T19:55:21.843Z,99.90
2022-08-12T19:58:01.734Z,99.90
2022-08-12T20:00:34.744Z,99.90
2022-08-12T20:03:06.391Z,99.90
2022-08-12T20:06:04.701Z,99.90
2022-08-12T20:08:34.184Z,99.90
2022-08-12T20:12:14.177Z,99.90
2022-08-12T20:14:01.484Z,99.90
2022-08-12T20:19:52.377Z,99.90
2022-08-12T20:22:24.384Z,99.90
2022-08-12T20:25:02.019Z,99.90
2022-08-12T20:28:04.061Z,99.90
2022-08-12T20:30:38.162Z,99.90
2022-08-12T20:33:18.703Z,99.90
2022-08-12T20:36:13.992Z,99.90
2022-08-12T20:38:46.060Z,99.90
2022-08-12T20:41:19.318Z,99.90
2022-08-12T20:43:50.633Z,99.90
2022-08-12T20:46:21.535Z,99.90
2022-08-12T20:48:55.349Z,99.90
2022-08-12T20:51:27.953Z,99.90
2022-08-12T20:53:59.591Z,99.90
2022-08-12T20:56:34.599Z,99.90
2022-08-12T20:59:06.162Z,99.90
2022-08-12T21:01:46.176Z,99.90
2022-08-12T21:04:35.469Z,99.90
2022-08-12T21:07:09.632Z,99.90
2022-08-12T21:09:42.705Z,99.90
2022-08-12T21:12:28.089Z,99.90
2022-08-12T21:15:23.920Z,99.90
2022-08-12T21:18:09.186Z,99.90
2022-08-12T21:20:42.110Z,99.90
2022-08-12T21:23:14.311Z,99.90
2022-08-12T21:25:48.159Z,99.90
2022-08-12T21:28:20.635Z,99.90
2022-08-12T21:31:11.587Z,99.90
2022-08-12T21:33:58.920Z,99.90
2022-08-12T21:36:34.812Z,99.90
2022-08-12T21:39:18.513Z,99.90
2022-08-12T21:41:52.438Z,99.90
2022-08-12T21:45:47.215Z,99.90
2022-08-12T21:47:21.827Z,99.90
2022-08-12T21:50:03.845Z,99.90
2022-08-12T21:52:37.158Z,99.90
2022-08-12T21:55:18.861Z,99.90
2022-08-12T21:57:53.122Z,99.90
2022-08-12T22:00:31.782Z,99.90
2022-08-12T22:04:02.080Z,99.90
2022-08-12T22:06:25.850Z,99.90
2022-08-12T22:08:59.485Z,99.90
2022-08-12T22:11:42.431Z,99.90
2022-08-12T22:14:21.959Z,99.90
2022-08-12T22:16:57.227Z,99.90
2022-08-12T22:19:26.910Z,99.90
2022-08-12T22:21:58.811Z,99.90
2022-08-12T22:24:30.907Z,99.90
2022-08-12T22:27:08.199Z,99.90
2022-08-12T22:30:07.240Z,99.90
2022-08-12T22:32:44.857Z,99.90
2022-08-12T22:35:56.102Z,99.90
2022-08-12T22:38:23.823Z,99.90
2022-08-12T22:40:54.875Z,99.90
2022-08-12T22:43:59.070Z,99.90
2022-08-12T22:46:51.916Z,99.90
2022-08-12T22:49:36.513Z,99.90
2022-08-12T22:52:14.489Z,99.90
2022-08-12T22:55:03.176Z,99.90
2022-08-12T22:57:49.339Z,99.90
2022-08-12T23:00:27.692Z,99.90
2022-08-12T23:03:00.787Z,99.90
2022-08-12T23:05:56.669Z,99.90
2022-08-12T23:08:30.019Z,99.90
2022-08-12T23:11:05.892Z,99.90
2022-08-12T23:13:54.806Z,99.90
2022-08-12T23:16:30.922Z,99.90
2022-08-12T23:19:10.482Z,99.90
2022-08-12T23:22:06.166Z,99.90
2022-08-12T23:24:56.449Z,99.90
2022-08-12T23:27:50.652Z,99.90
2022-08-12T23:30:32.458Z,99.90
2022-08-12T23:33:13.151Z,99.90
2022-08-12T23:35:53.883Z,99.90
2022-08-12T23:38:31.723Z,99.90
2022-08-12T23:41:01.885Z,99.90
2022-08-12T23:43:39.701Z,99.90
2022-08-12T23:46:10.953Z,99.90
2022-08-12T23:48:40.724Z,99.90
2022-08-12T23:51:22.255Z,99.90
2022-08-12T23:54:02.899Z,99.90
2022-08-12T23:56:33.994Z,99.90
2022-08-12T23:59:04.113Z,99.90
